createdAt,value
2022-11-03T00:01:53.457Z,8.74
2022-11-03T00:06:56.850Z,8.72
2022-11-03T00:11:59.516Z,8.71
2022-11-03T00:17:02.250Z,8.72
2022-11-03T00:22:04.923Z,8.67
2022-11-03T00:27:07.610Z,8.65
2022-11-03T00:32:10.292Z,8.60
2022-11-03T00:37:13.001Z,8.55
2022-11-03T00:42:15.659Z,8.52
2022-11-03T00:47:21.625Z,8.47
2022-11-03T00:52:27.025Z,8.40
2022-11-03T00:57:29.715Z,8.37
2022-11-03T01:02:32.468Z,8.33
2022-11-03T01:07:35.356Z,8.28
2022-11-03T01:12:38.159Z,8.27
2022-11-03T01:17:41.467Z,8.21
2022-11-03T01:22:44.129Z,8.18
2022-11-03T01:27:46.819Z,8.15
2022-11-03T01:32:49.567Z,8.09
2022-11-03T01:37:52.262Z,8.06
2022-11-03T01:42:54.963Z,8.03
2022-11-03T01:53:01.796Z,8.05
2022-11-03T01:58:10.399Z,8.03
2022-11-03T02:03:14.437Z,8.01
2022-11-03T02:08:24.709Z,7.96
2022-11-03T02:13:28.176Z,7.93
2022-11-03T02:18:34.373Z,7.92
2022-11-03T02:23:46.844Z,7.92
2022-11-03T02:28:49.580Z,7.89
2022-11-03T02:34:14.408Z,7.88
2022-11-03T02:39:30.082Z,7.86
2022-11-03T02:44:34.202Z,7.79
2022-11-03T02:49:45.594Z,7.74
2022-11-03T02:54:48.689Z,7.69
2022-11-03T03:00:01.974Z,7.64
2022-11-03T03:05:09.067Z,7.61
2022-11-03T03:10:25.291Z,7.56
2022-11-03T03:15:45.416Z,7.53
2022-11-03T03:21:05.711Z,7.52
2022-11-03T03:26:12.704Z,7.46
2022-11-03T03:31:18.917Z,7.46
2022-11-03T03:36:24.441Z,7.42
2022-11-03T03:41:32.825Z,7.39
2022-11-03T03:46:41.204Z,7.37
2022-11-03T03:51:46.147Z,7.37
2022-11-03T03:57:00.992Z,7.35
2022-11-03T04:02:04.021Z,7.31
2022-11-03T04:07:31.029Z,7.25
2022-11-03T04:12:52.572Z,7.21
2022-11-03T04:18:14.321Z,7.18
2022-11-03T04:23:17.641Z,7.16
2022-11-03T04:28:20.924Z,7.14
2022-11-03T04:33:23.743Z,7.11
2022-11-03T04:38:27.618Z,7.10
2022-11-03T04:43:33.983Z,7.07
2022-11-03T04:48:37.159Z,7.03
2022-11-03T04:53:45.266Z,7.02
2022-11-03T04:58:48.303Z,7.02
2022-11-03T05:03:53.988Z,7.02
2022-11-03T05:09:00.761Z,7.00
2022-11-03T05:14:07.118Z,6.97
2022-11-03T05:19:16.227Z,6.93
2022-11-03T05:24:21.983Z,6.91
2022-11-03T05:29:32.447Z,6.87
2022-11-03T05:34:43.566Z,6.85
2022-11-03T05:39:48.690Z,6.85
2022-11-03T05:44:52.017Z,6.82
2022-11-03T05:50:00.388Z,6.74
2022-11-03T05:55:04.063Z,6.64
2022-11-03T06:00:21.813Z,6.64
2022-11-03T06:05:26.177Z,6.64
2022-11-03T06:10:39.184Z,6.61
2022-11-03T06:15:44.458Z,6.61
2022-11-03T06:20:53.264Z,6.64
2022-11-03T06:25:56.364Z,6.68
2022-11-03T06:30:59.402Z,6.70
2022-11-03T06:36:11.431Z,6.77
2022-11-03T06:41:21.101Z,6.85
2022-11-03T06:46:25.852Z,6.91
2022-11-03T06:51:29.844Z,6.90
2022-11-03T06:56:36.759Z,6.96
2022-11-03T07:01:40.012Z,7.02
2022-11-03T07:06:47.883Z,7.05
2022-11-03T07:11:59.952Z,7.10
2022-11-03T07:17:05.631Z,7.20
2022-11-03T07:22:27.454Z,7.31
2022-11-03T07:27:35.622Z,7.40
2022-11-03T07:32:39.176Z,7.50
2022-11-03T07:37:42.185Z,7.63
2022-11-03T07:42:45.309Z,7.73
2022-11-03T07:47:49.542Z,7.84
2022-11-03T07:52:52.725Z,7.94
2022-11-03T07:57:55.437Z,7.95
2022-11-03T08:03:01.530Z,8.04
2022-11-03T08:08:04.788Z,8.15
2022-11-03T08:13:08.041Z,8.25
2022-11-03T08:18:11.001Z,8.44
2022-11-03T08:23:25.998Z,8.67
2022-11-03T08:28:30.326Z,8.90
2022-11-03T08:33:33.579Z,9.09
2022-11-03T08:38:36.775Z,9.24
2022-11-03T08:43:39.472Z,9.44
2022-11-03T08:48:44.318Z,9.64
2022-11-03T08:53:50.714Z,9.87
2022-11-03T08:58:53.521Z,10.14
2022-11-03T09:03:56.338Z,10.33
2022-11-03T09:14:21.871Z,10.54
2022-11-03T09:19:25.407Z,10.68
2022-11-03T09:24:28.155Z,10.81
2022-11-03T09:29:51.526Z,10.97
2022-11-03T09:34:53.741Z,11.23
2022-11-03T09:39:56.701Z,11.41
2022-11-03T09:45:00.881Z,11.53
2022-11-03T09:50:05.151Z,11.59
2022-11-03T09:55:25.129Z,11.69
2022-11-03T10:00:28.026Z,11.87
2022-11-03T10:05:31.009Z,12.05
2022-11-03T10:10:35.638Z,12.31
2022-11-03T10:15:39.598Z,12.76
2022-11-03T10:20:42.515Z,13.85
2022-11-03T10:25:45.903Z,15.05
2022-11-03T10:31:10.087Z,16.24
2022-11-03T10:36:15.221Z,17.48
2022-11-03T10:41:26.713Z,18.48
2022-11-03T10:46:49.119Z,19.48
2022-11-03T10:51:55.484Z,20.47
2022-11-03T10:56:58.470Z,21.39
2022-11-03T11:02:02.266Z,22.08
2022-11-03T11:07:18.111Z,22.84
2022-11-03T11:12:25.323Z,23.51
2022-11-03T11:17:37.171Z,24.30
2022-11-03T11:22:39.965Z,25.16
2022-11-03T11:27:42.607Z,25.51
2022-11-03T11:32:45.312Z,25.78
2022-11-03T11:37:48.081Z,25.85
2022-11-03T11:43:03.607Z,25.79
2022-11-03T11:48:19.099Z,25.12
2022-11-03T11:53:27.493Z,24.42
2022-11-03T11:58:42.792Z,23.73
2022-11-03T12:03:46.720Z,22.77
2022-11-03T12:08:49.630Z,22.14
2022-11-03T12:13:53.050Z,21.87
2022-11-03T12:18:56.236Z,21.45
2022-11-03T12:23:58.937Z,20.75
2022-11-03T12:29:01.612Z,20.52
2022-11-03T12:34:04.264Z,20.66
2022-11-03T12:39:07.016Z,20.49
2022-11-03T12:44:09.938Z,19.79
2022-11-03T12:49:12.803Z,19.15
2022-11-03T12:54:15.526Z,18.48
2022-11-03T12:59:18.194Z,17.92
2022-11-03T13:04:21.206Z,17.50
2022-11-03T13:09:24.004Z,17.02
2022-11-03T13:14:26.770Z,16.58
2022-11-03T13:19:29.737Z,16.13
2022-11-03T13:24:32.848Z,15.77
2022-11-03T13:29:36.397Z,15.62
2022-11-03T13:34:39.134Z,15.66
2022-11-03T13:39:41.840Z,15.63
2022-11-03T13:44:44.692Z,15.39
2022-11-03T14:00:35.241Z,14.72
2022-11-03T14:05:38.206Z,14.56
2022-11-03T14:10:40.871Z,14.41
2022-11-03T14:15:43.546Z,14.28
2022-11-03T14:20:46.246Z,14.12
2022-11-03T14:26:00.338Z,14.00
2022-11-03T14:31:11.632Z,13.82
2022-11-03T14:36:14.846Z,13.69
2022-11-03T14:41:36.007Z,13.57
2022-11-03T14:46:38.805Z,13.37
2022-11-03T14:51:41.532Z,13.20
2022-11-03T14:56:44.189Z,13.08
2022-11-03T15:01:48.205Z,12.94
2022-11-03T15:06:51.113Z,12.74
2022-11-03T15:11:53.973Z,12.55
2022-11-03T15:16:56.760Z,12.40
2022-11-03T15:21:59.553Z,12.24
2022-11-03T15:27:02.222Z,12.06
2022-11-03T15:32:05.253Z,11.85
2022-11-03T15:37:07.947Z,11.66
2022-11-03T15:42:10.619Z,11.46
2022-11-03T15:47:13.316Z,11.25
2022-11-03T15:52:16.069Z,10.98
2022-11-03T15:57:19.115Z,10.75
2022-11-03T16:02:40.077Z,10.53
2022-11-03T16:07:43.857Z,10.36
2022-11-03T16:12:46.630Z,10.25
2022-11-03T16:17:49.330Z,10.09
2022-11-03T16:27:55.751Z,9.88
2022-11-03T16:32:58.548Z,9.74
2022-11-03T16:38:01.437Z,9.57
2022-11-03T16:43:04.135Z,9.40
2022-11-03T16:48:07.724Z,9.28
2022-11-03T16:53:10.713Z,9.16
2022-11-03T16:58:13.581Z,9.04
2022-11-03T17:03:16.477Z,9.03
2022-11-03T17:08:50.833Z,9.06
2022-11-03T17:13:41.935Z,9.05
2022-11-03T17:18:44.652Z,8.96
2022-11-03T17:23:47.336Z,8.82
2022-11-03T17:28:50.249Z,8.63
2022-11-03T17:33:54.850Z,8.45
2022-11-03T17:38:57.778Z,8.34
2022-11-03T17:44:00.499Z,8.28
2022-11-03T17:49:03.185Z,8.20
2022-11-03T17:54:08.215Z,8.14
2022-11-03T17:59:14.743Z,8.05
2022-11-03T18:04:17.648Z,7.90
2022-11-03T18:09:20.446Z,7.82
2022-11-03T18:14:23.981Z,7.74
2022-11-03T18:19:26.798Z,7.62
2022-11-03T18:24:29.493Z,7.55
2022-11-03T18:29:32.159Z,7.57
2022-11-03T18:34:35.390Z,7.62
2022-11-03T18:39:39.207Z,7.63
2022-11-03T18:44:43.134Z,7.56
2022-11-03T18:49:46.451Z,7.46
2022-11-03T18:54:53.834Z,7.34
2022-11-03T18:59:56.983Z,7.29
2022-11-03T19:04:59.685Z,7.27
2022-11-03T19:10:08.160Z,7.24
2022-11-03T19:15:23.108Z,7.15
2022-11-03T19:20:25.864Z,7.05
2022-11-03T19:25:28.614Z,6.95
2022-11-03T19:30:32.299Z,6.88
2022-11-03T19:35:35.417Z,6.85
2022-11-03T19:40:39.205Z,6.86
2022-11-03T19:45:41.889Z,6.85
2022-11-03T19:50:45.535Z,6.82
2022-11-03T19:55:48.877Z,6.73
2022-11-03T20:00:52.908Z,6.59
2022-11-03T20:05:57.967Z,6.48
2022-11-03T20:11:01.093Z,6.42
2022-11-03T20:16:05.500Z,6.41
2022-11-03T20:21:14.440Z,6.41
2022-11-03T20:26:20.518Z,6.37
2022-11-03T20:31:23.626Z,6.31
2022-11-03T20:36:27.443Z,6.22
2022-11-03T20:41:31.374Z,6.13
2022-11-03T20:46:34.380Z,6.06
2022-11-03T20:51:43.869Z,6.03
2022-11-03T20:56:47.671Z,6.04
2022-11-03T21:01:51.892Z,6.02
2022-11-03T21:06:54.807Z,5.99
2022-11-03T21:11:57.635Z,5.91
2022-11-03T21:17:19.118Z,5.86
2022-11-03T21:22:51.783Z,5.82
2022-11-03T21:27:55.124Z,5.74
2022-11-03T21:32:57.888Z,5.65
2022-11-03T21:38:01.254Z,5.59
2022-11-03T21:43:22.575Z,5.57
2022-11-03T21:48:44.054Z,5.56
2022-11-03T21:53:47.904Z,5.62
2022-11-03T21:58:50.609Z,5.71
2022-11-03T22:03:55.521Z,5.80
2022-11-03T22:08:58.217Z,5.86
2022-11-03T22:14:01.934Z,5.89
2022-11-03T22:19:31.752Z,5.96
2022-11-03T22:24:53.020Z,6.05
2022-11-03T22:30:14.355Z,6.11
2022-11-03T22:35:55.437Z,6.15
2022-11-03T22:41:16.908Z,6.18
2022-11-03T22:46:20.521Z,6.23
2022-11-03T22:51:23.204Z,6.25
2022-11-03T22:56:28.276Z,6.25
2022-11-03T23:01:31.516Z,6.21
2022-11-03T23:06:41.039Z,6.16
2022-11-03T23:11:43.842Z,6.17
2022-11-03T23:16:46.609Z,6.18
2022-11-03T23:21:51.585Z,6.16
2022-11-03T23:26:54.416Z,6.11
2022-11-03T23:31:59.240Z,6.03
2022-11-03T23:37:02.436Z,5.97
2022-11-03T23:42:05.710Z,5.97
2022-11-03T23:47:27.410Z,6.00
2022-11-03T23:52:30.110Z,6.04
2022-11-03T23:58:02.210Z,6.03
